Latest Weather Observations for Sydney Airport

IDN60901

Issued at 2:51 pm EDT Friday 27 February 2015 (issued every 10 minutes, with the page automatically refreshed every 10 minutes)

About weather observations | Map of Sydney area stations | Latest observations for Sydney area | Other Formats
Station Details ID: 066037 Name: SYDNEY AIRPORT AMO Lat: -33.95 Lon: 151.17 Height: 6.0 m
Data from the previous 72 hours. | See also: Recent months at Sydney Airport
Date/Time
EDT
Tmp

°C
App
Tmp
°C
Dew
Point
°C
Rel
Hum
%
Delta-T

°C
Wind Press
QNH
hPa
Press
MSL
hPa
Rain
since
9 am
mm
Dir
 
Spd
km/h
Gust
km/h
Spd
kts
Gust
kts
27/02:30pm 25.9 25.0 18.2 62 4.9 SE 20 26 11 14 1009.7 1009.7 0.0
27/02:00pm 26.0 24.9 17.4 59 5.4 SE 19 24 10 13 1009.8 1009.8 0.0
27/01:30pm 25.9 24.8 17.4 59 5.3 SE 19 24 10 13 1010.1 1010.1 0.0
27/01:00pm 24.8 24.3 18.7 69 3.9 SSE 19 22 10 12 1010.3 1010.3 0.0
27/12:30pm 24.1 23.4 18.2 69 3.7 SSE 19 24 10 13 1010.6 1010.6 0.0
27/12:00pm 25.2 24.3 18.1 64 4.5 SE 20 26 11 14 1010.8 1010.8 0.0
27/11:30am 25.3 24.0 16.7 59 5.3 SE 19 26 10 14 1011.2 1011.2 0.0
27/11:00am 24.4 23.3 17.7 66 4.2 SE 20 26 11 14 1011.3 1011.3 0.0
27/10:30am 25.3 24.7 18.4 65 4.4 SSE 19 26 10 14 1011.3 1011.3 0.0
27/10:00am 24.3 23.5 18.4 69 3.7 SSE 20 26 11 14 1011.2 1011.2 0.0
27/09:30am 23.6 22.1 18.5 73 3.2 SE 24 28 13 15 1011.0 1011.0 0.0
27/09:00am 23.3 23.4 19.1 77 2.7 SSE 17 26 9 14 1010.9 1010.9 0.4
27/08:30am 22.7 21.9 19.2 80 2.2 SSE 22 28 12 15 1010.8 1010.8 0.4
27/08:00am 22.5 22.2 19.5 83 1.9 SSE 20 28 11 15 1010.5 1010.5 0.4
27/07:30am 21.4 22.5 19.7 90 1.1 SSW 13 17 7 9 1010.0 1010.0 0.4
27/07:00am 22.0 22.6 20.3 90 1.1 S 17 19 9 10 1009.7 1009.7 0.2
27/06:30am 21.6 21.9 19.6 88 1.3 SSW 17 28 9 15 1009.3 1009.3 0.0
27/05:30am 21.8 22.1 19.6 87 1.4 SSW 17 20 9 11 1009.0 1009.0 0.0
27/05:00am 21.5 21.9 19.8 90 1.1 SSW 17 20 9 11 1008.7 1008.7 0.0
27/04:30am 21.5 21.4 19.5 88 1.3 SSW 19 24 10 13 1008.7 1008.7 0.0
27/04:00am 21.4 20.7 19.5 89 1.2 SSW 22 26 12 14 1008.5 1008.5 0.0
27/03:30am 21.5 21.3 19.3 87 1.4 SSW 19 24 10 13 1008.4 1008.4 0.0
27/03:00am 21.3 20.8 19.2 88 1.3 SSW 20 26 11 14 1008.5 1008.5 0.0
27/02:30am 21.2 21.5 19.5 90 1.1 SSW 17 22 9 12 1008.6 1008.6 0.0
27/02:00am 21.4 21.3 19.5 89 1.2 SW 19 22 10 12 1008.7 1008.7 0.0
27/12:30am 21.8 23.4 20.7 93 0.7 SW 13 17 7 9 1009.2 1009.2 0.0
 
Date/Time
EDT
Tmp

°C
App
Tmp
°C
Dew
Point
°C
Rel
Hum
%
Delta-T

°C
Wind Press
QNH
hPa
Press
MSL
hPa
Rain
since
9 am
mm
Dir
 
Spd
km/h
Gust
km/h
Spd
kts
Gust
kts
26/11:30pm 22.3 24.6 20.6 90 1.1 SSE 9 11 5 6 1009.0 1009.0 0.0
26/11:00pm 22.6 25.1 20.3 87 1.5 ENE 7 9 4 5 1009.0 1009.0 0.0
26/10:30pm 22.5 26.6 20.7 89 1.2 CALM 0 0 0 0 1009.2 1009.2 0.0
26/10:00pm 22.6 25.4 20.8 89 1.2 S 7 9 4 5 1009.8 1009.8 0.0
26/09:30pm 23.0 25.6 20.1 84 1.9 S 6 15 3 8 1009.9 1009.9 0.0
26/09:00pm 23.0 25.5 19.9 83 2.0 E 6 9 3 5 1009.6 1009.6 0.0
26/08:30pm 23.2 25.5 19.4 79 2.4 ENE 6 11 3 6 1008.9 1008.9 0.0
26/08:00pm 23.5 23.8 20.3 82 2.1 NNE 19 22 10 12 1007.3 1007.3 0.0
26/07:30pm 22.8 23.8 20.2 85 1.7 ESE 15 17 8 9 1007.1 1007.1 0.0
26/07:00pm 23.6 25.1 19.0 75 2.9 ESE 9 13 5 7 1007.4 1007.4 0.0
26/06:30pm 23.9 24.3 18.9 73 3.2 ENE 15 17 8 9 1006.7 1006.7 0.0
26/05:30pm 26.0 25.8 17.7 60 5.2 NE 15 19 8 10 1006.2 1006.2 0.0
26/05:00pm 25.2 25.0 17.5 62 4.8 NE 15 19 8 10 1006.3 1006.3 0.0
26/04:30pm 26.5 25.3 17.6 58 5.6 NE 20 24 11 13 1006.6 1006.6 0.0
26/04:00pm 26.1 25.9 17.5 59 5.4 ENE 15 24 8 13 1006.6 1006.6 0.0
26/03:30pm 27.1 26.6 17.8 56 5.9 ENE 17 26 9 14 1006.9 1006.9 0.0
26/03:00pm 26.0 25.3 18.3 62 4.9 ENE 19 24 10 13 1007.1 1007.1 0.0
26/02:30pm 25.4 24.9 17.9 63 4.7 ESE 17 26 9 14 1007.3 1007.3 0.0
26/02:00pm 25.2 25.1 17.9 64 4.6 SE 15 20 8 11 1007.9 1007.9 0.0
26/01:30pm 25.8 25.8 17.1 58 5.4 SSE 13 17 7 9 1008.3 1008.3 0.0
26/01:00pm 25.8 26.9 18.0 62 4.9 WNW 9 13 5 7 1008.7 1008.7 0.0
26/12:30pm 25.1 26.2 17.0 60 5.0 NNW 7 13 4 7 1009.1 1009.1 0.0
26/12:00pm 25.2 25.5 17.0 60 5.1 NNE 11 17 6 9 1009.7 1009.7 0.0
26/11:30am 24.4 24.4 17.3 64 4.4 N 13 17 7 9 1010.1 1010.1 0.0
26/11:00am 24.2 24.3 17.4 65 4.2 NW 13 20 7 11 1010.5 1010.5 0.0
26/10:30am 24.6 24.7 17.5 64 4.4 NW 13 19 7 10 1010.7 1010.7 0.0
26/10:00am 23.0 23.0 17.2 70 3.6 WNW 13 26 7 14 1010.8 1010.8 0.0
26/09:30am 21.8 22.2 17.2 75 2.8 NW 11 19 6 10 1010.9 1010.9 0.0
26/09:00am 22.6 23.0 17.2 71 3.3 WNW 11 15 6 8 1010.9 1010.9 11.6
26/08:30am 20.5 20.5 17.1 81 2.1 WNW 13 15 7 8 1010.8 1010.8 11.6
26/08:00am 20.6 20.4 16.8 79 2.3 WNW 13 13 7 7 1010.6 1010.6 11.6
26/07:30am 20.8 21.3 17.4 81 2.1 WNW 11 17 6 9 1010.6 1010.6 11.6
26/07:00am 20.3 21.7 17.4 83 1.8 SW 6 11 3 6 1010.4 1010.4 11.6
26/06:30am 20.3 22.9 17.4 83 1.8 CALM 0 4 0 2 1010.3 1010.3 11.6
26/06:00am 20.3 21.4 17.2 82 1.9 ESE 7 9 4 5 1010.2 1010.2 11.6
26/05:30am 20.4 20.7 17.1 81 2.0 SE 11 13 6 7 1010.2 1010.2 11.6
26/05:00am 20.4 20.7 16.9 80 2.1 ESE 11 13 6 7 1010.3 1010.3 11.6
26/04:30am 20.7 21.2 17.4 81 2.0 S 11 13 6 7 1010.4 1010.4 11.6
26/04:00am 20.7 21.4 17.1 80 2.2 S 9 11 5 6 1010.6 1010.6 11.6
26/03:30am 20.5 20.6 17.4 82 1.9 SSE 13 17 7 9 1010.8 1010.8 11.6
26/03:00am 20.4 20.3 16.9 80 2.1 S 13 17 7 9 1011.0 1011.0 11.6
26/02:30am 20.4 20.7 16.9 80 2.1 SSW 11 13 6 7 1011.4 1011.4 11.6
26/02:00am 20.3 20.2 17.0 81 2.0 SW 13 15 7 8 1012.0 1012.0 11.6
26/01:30am 20.4 20.4 17.3 82 1.9 SW 13 17 7 9 1012.3 1012.3 11.6
26/01:00am 20.8 20.6 16.7 77 2.5 WNW 13 15 7 8 1012.7 1012.7 11.6
26/12:30am 21.5 22.6 16.6 73 3.0 SW 6 7 3 4 1012.9 1012.9 11.6
26/12:00am 21.7 22.1 16.4 72 3.2 S 9 13 5 7 1013.0 1013.0 11.6
 
Date/Time
EDT
Tmp

°C
App
Tmp
°C
Dew
Point
°C
Rel
Hum
%
Delta-T

°C
Wind Press
QNH
hPa
Press
MSL
hPa
Rain
since
9 am
mm
Dir
 
Spd
km/h
Gust
km/h
Spd
kts
Gust
kts
25/11:30pm 21.8 21.6 16.7 73 3.1 S 13 15 7 8 1013.2 1013.2 11.6
25/11:00pm 21.8 22.4 15.8 68 3.6 SSE 7 11 4 6 1013.6 1013.6 11.6
25/10:30pm 21.9 21.5 16.1 69 3.5 SSE 13 15 7 8 1013.7 1013.7 11.6
25/10:00pm 21.7 21.0 16.4 72 3.2 SE 15 19 8 10 1013.8 1013.8 11.6
25/09:30pm 21.6 20.5 16.3 72 3.2 SE 17 20 9 11 1013.9 1013.9 11.6
25/09:00pm 21.8 20.3 16.2 70 3.4 SE 19 26 10 14 1014.1 1014.1 11.6
25/08:30pm 21.3 20.2 16.3 73 3.0 SSE 17 22 9 12 1014.1 1014.1 11.6
25/08:00pm 21.5 20.6 16.9 75 2.8 SSE 17 24 9 13 1014.1 1014.1 11.6
25/07:30pm 21.5 19.9 16.4 72 3.1 SSE 20 28 11 15 1013.9 1013.9 11.6
25/07:00pm 21.7 19.9 17.0 74 2.9 S 22 26 12 14 1014.3 1014.3 11.6
25/06:30pm 21.4 19.3 17.2 77 2.6 S 24 32 13 17 1014.7 1014.7 11.6
25/06:09pm 20.8 18.0 18.1 84 1.7 S 30 50 16 27 1014.8 1014.8 11.6
25/06:00pm 20.9 18.5 18.2 84 1.7 S 28 33 15 18 1014.6 1014.6 11.6
25/05:30pm 21.0 19.0 18.4 85 1.6 S 26 35 14 19 1014.5 1014.5 11.2
25/05:00pm 22.7 19.7 15.9 65 4.1 SSE 26 35 14 19 1014.1 1014.1 11.2
25/04:30pm 23.3 20.4 16.0 63 4.4 SSE 26 39 14 21 1014.1 1014.1 11.2
25/04:00pm 23.3 20.6 16.6 66 4.1 SSE 26 35 14 19 1014.4 1014.4 11.2
25/03:30pm 22.4 19.6 17.4 73 3.1 SE 28 33 15 18 1014.8 1014.8 11.2
25/03:00pm 20.8 18.0 18.1 84 1.7 SSE 30 39 16 21 1015.2 1015.2 11.2
25/02:30pm 20.9 17.8 18.3 85 1.6 SSE 32 39 17 21 1015.9 1015.9 11.2
25/02:00pm 19.9 16.8 18.8 93 0.7 SSE 33 41 18 22 1016.0 1016.0 11.2
25/01:30pm 19.7 16.7 18.6 93 0.7 SSE 32 37 17 20 1016.1 1016.1 11.0
25/01:00pm 19.7 16.7 18.7 94 0.6 S 32 39 17 21 1016.4 1016.4 10.8
25/12:30pm 20.0 16.9 18.9 93 0.7 SSE 33 41 18 22 1016.5 1016.5 10.4
25/12:12pm 20.3 17.5 19.0 92 0.8 S 32 39 17 21 1016.5 1016.5 8.8
25/12:00pm 20.7 17.9 19.1 90 1.0 SSE 32 39 17 21 1016.5 1016.5 8.4
25/11:30am 20.8 18.4 19.1 90 1.1 SSE 30 39 16 21 1016.6 1016.6 8.4
25/11:00am 21.3 18.7 19.9 92 0.9 SE 33 41 18 22 1016.1 1016.1 8.4
25/10:30am 20.8 18.0 19.5 92 0.8 SSE 33 43 18 23 1015.9 1015.9 8.4
25/10:00am 20.9 19.2 19.8 93 0.7 SSE 28 35 15 19 1015.9 1015.9 6.6
25/09:43am 21.3 19.9 19.7 91 1.0 SE 26 37 14 20 1016.0 1016.0 3.0
25/09:30am 21.7 22.7 19.5 87 1.4 SE 13 19 7 10 1015.8 1015.8 0.0
25/09:00am 21.3 22.5 18.2 82 1.9 WSW 9 11 5 6 1015.6 1015.6 0.0
25/08:30am 21.7 21.5 16.6 73 3.1 WNW 13 15 7 8 1015.2 1015.2 0.0
25/08:00am 21.9 21.6 16.5 71 3.3 NNW 13 17 7 9 1014.9 1014.9 0.0
25/07:30am 20.2 20.3 16.4 79 2.3 SW 11 15 6 8 1014.9 1014.9 0.0
25/07:00am 19.9 19.4 16.0 78 2.3 WSW 13 20 7 11 1014.7 1014.7 0.0
25/06:30am 20.2 20.2 16.2 78 2.4 WSW 11 15 6 8 1014.3 1014.3 0.0
25/06:00am 20.3 20.6 16.1 77 2.5 WSW 9 11 5 6 1014.2 1014.2 0.0
25/05:30am 20.2 20.2 16.2 78 2.4 WSW 11 13 6 7 1014.2 1014.2 0.0
25/05:00am 20.2 20.2 16.2 78 2.4 WSW 11 13 6 7 1014.1 1014.1 0.0
25/04:30am 20.3 19.9 16.1 77 2.5 WSW 13 19 7 10 1014.1 1014.1 0.0
25/04:00am 20.4 19.6 16.2 77 2.5 WSW 15 20 8 11 1014.3 1014.3 0.0
25/03:30am 20.3 20.1 16.8 80 2.1 WSW 13 17 7 9 1014.5 1014.5 0.0
25/03:00am 20.3 20.1 16.8 80 2.1 SW 13 17 7 9 1014.6 1014.6 0.0
25/02:30am 20.7 20.0 17.3 81 2.1 SSW 17 26 9 14 1015.0 1015.0 0.0
25/02:00am 20.7 20.0 17.3 81 2.1 SW 17 20 9 11 1015.1 1015.1 0.0
25/01:30am 20.9 20.2 17.3 80 2.2 SSW 17 22 9 12 1015.5 1015.5 0.0
25/01:00am 21.2 20.1 17.8 81 2.1 SSW 20 28 11 15 1016.0 1016.0 0.0
25/12:30am 21.2 19.9 17.3 78 2.4 SSW 20 28 11 15 1016.0 1016.0 0.0
25/12:00am 21.6 19.8 17.9 79 2.3 SSW 24 32 13 17 1016.2 1016.2 0.0
 
Date/Time
EDT
Tmp

°C
App
Tmp
°C
Dew
Point
°C
Rel
Hum
%
Delta-T

°C
Wind Press
QNH
hPa
Press
MSL
hPa
Rain
since
9 am
mm
Dir
 
Spd
km/h
Gust
km/h
Spd
kts
Gust
kts
24/11:30pm 21.6 19.1 18.1 80 2.2 SSW 28 37 15 20 1016.4 1016.4 0.0
24/11:00pm 21.5 18.9 17.9 80 2.2 SSW 28 39 15 21 1016.6 1016.6 0.0
24/10:30pm 21.5 18.2 17.9 80 2.2 SSW 32 39 17 21 1016.7 1016.7 0.0
24/10:13pm 21.4 17.9 18.0 81 2.1 SSW 33 52 18 28 1016.8 1016.8 0.0
24/10:00pm 21.3 18.1 18.1 82 2.0 SSW 32 41 17 22 1017.0 1017.0 0.0
24/09:30pm 21.5 18.3 18.1 81 2.1 SSW 32 39 17 21 1017.0 1017.0 0.0
24/09:00pm 21.6 18.9 18.4 82 2.0 S 30 41 16 22 1016.8 1016.8 0.0
24/08:30pm 21.6 18.5 18.4 82 2.0 SSW 32 39 17 21 1016.8 1016.8 0.0
24/08:00pm 21.8 18.5 18.4 81 2.1 SSW 33 44 18 24 1016.4 1016.4 0.0
24/07:30pm 21.9 18.9 18.7 82 2.0 SSW 32 39 17 21 1016.1 1016.1 0.0
24/07:00pm 21.9 18.4 18.7 82 2.0 SSW 35 43 19 23 1015.8 1015.8 0.0
24/06:30pm 21.9 17.5 18.5 81 2.1 S 39 48 21 26 1015.5 1015.5 0.0
24/06:00pm 22.3 17.9 18.5 79 2.4 S 39 54 21 29 1015.2 1015.2 0.0
24/05:30pm 22.2 17.4 18.5 79 2.3 S 41 57 22 31 1015.1 1015.1 0.0
24/05:00pm 22.3 17.2 18.5 79 2.4 S 43 54 23 29 1015.1 1015.1 0.0
24/04:30pm 22.6 17.4 18.3 76 2.7 S 43 54 23 29 1015.1 1015.1 0.0
24/04:00pm 22.8 17.4 18.3 76 2.8 S 44 57 24 31 1014.8 1014.8 0.0
24/03:30pm 22.5 17.4 18.7 79 2.4 S 43 54 23 29 1015.0 1015.0 0.0
24/03:00pm 23.0 17.7 18.2 74 3.0 S 43 59 23 32 1015.2 1015.2 0.0

Latest Capital City Observations: Canberra | Sydney | Melbourne | Brisbane | Adelaide | Perth | Hobart | Darwin

Other Formats:

Comma delimited format used in spreadsheet applications
http://www.bom.gov.au/fwo/IDN60901/IDN60901.94767.axf

JavaScript Object Notation format (JSON) in row-major order
http://www.bom.gov.au/fwo/IDN60901/IDN60901.94767.json